San Antonio International Airport
KSAT : now visible

Airfield :











YOU CAN JOIN US ON...

 
LOGIN :

Register | Disclaimer

   EN    FR    IT 

 









Legend :    VFR   Marginal VFR   IFR   Intensive IFR   Very Intensive IFR
Visi :
Ceiling :
>= 8 km
>= 3000ft
5 to 8 km
1000 to 3000 ft
1500m to 5 km
500 to 1000 ft
800 to 1500m
200 to 500 ft
< 800m
< 200 ft
Symbols :   Thunderstorms  Fog  Heavy snow  Heavy precipitations  Wind > 20 kt






- Airport Elevation : 809 ft
- IATA code : SAT


KSAT - San Antonio International

CURRENT METAR :
  • 151751Z VRB05KT 10SM CLR 14/02 A3041 RMK AO2 SLP289 T01440017 10144 20022 58012

EXPIRED METARs :
  • 151651Z 05008KT 10SM CLR 13/01 A3044 RMK AO2 SLP298 T01280011
  • 151551Z 01007KT 340V050 10SM CLR 11/02 A3045 RMK AO2 SLP304 T01110017

TAF KSAT
Valid from the 15 at 18:00 until the 17 at 00:00 UTC


151727Z 1518/1624 02006KT P6SM SKC
FM160200 VRB03KT P6SM SKC
FM161700 17005KT P6SM FEW250



MET'MAP, your aeronautical weather chart ! - Copyright ORBIFLY December 2007 - Disclaimer

ORBIFLY MET'MAP TEAM :

Programming & Development : Alexandra Zaïnal
Concept & Development : Baudouin d'Aumeries
Co-Development & Prog : Marc-Olivier Méhu
Technical & hardware support : Manuel Goepfert

Contact : metmap@orbifly.com




SOURCES & CREDITS :

   NOAA       Earth
Advisory